createdAt,value
2018-07-10T00:00:07.839Z,80.01
2018-07-10T00:03:23.496Z,78.82
2018-07-10T00:07:06.306Z,79.05
2018-07-10T00:10:15.946Z,79.18
2018-07-10T00:12:44.863Z,77.86
2018-07-10T00:15:13.627Z,78.02
2018-07-10T00:17:42.540Z,77.85
2018-07-10T00:20:11.533Z,77.65
2018-07-10T00:22:40.440Z,77.21
2018-07-10T00:25:09.290Z,78.61
2018-07-10T00:27:38.155Z,77.88
2018-07-10T00:30:06.980Z,78.72
2018-07-10T00:32:35.948Z,79.32
2018-07-10T00:35:04.989Z,79.51
2018-07-10T00:37:33.952Z,78.81
2018-07-10T00:40:02.936Z,78.82
2018-07-10T00:42:31.828Z,79.32
2018-07-10T00:45:00.871Z,79.09
2018-07-10T00:47:29.811Z,79.50
2018-07-10T00:49:58.543Z,79.32
2018-07-10T00:52:33.595Z,79.49
2018-07-10T00:55:03.059Z,80.01
2018-07-10T00:57:32.823Z,79.55
2018-07-10T01:00:03.122Z,79.62
2018-07-10T01:02:32.123Z,80.01
2018-07-10T01:05:00.984Z,79.65
2018-07-10T01:07:29.884Z,81.15
2018-07-10T01:09:58.733Z,82.01
2018-07-10T01:12:27.624Z,80.78
2018-07-10T01:14:56.790Z,81.52
2018-07-10T01:17:25.707Z,81.32
2018-07-10T01:19:54.723Z,81.35
2018-07-10T01:22:23.466Z,81.68
2018-07-10T01:24:52.437Z,81.85
2018-07-10T01:27:21.762Z,81.87
2018-07-10T01:29:51.201Z,81.06
2018-07-10T01:32:20.284Z,81.24
2018-07-10T01:34:49.251Z,81.40
2018-07-10T01:37:18.280Z,81.72
2018-07-10T01:39:46.977Z,81.71
2018-07-10T01:42:15.898Z,81.61
2018-07-10T01:44:44.807Z,81.66
2018-07-10T01:47:13.719Z,82.10
2018-07-10T01:49:42.692Z,81.44
2018-07-10T01:52:11.691Z,83.12
2018-07-10T01:54:40.646Z,82.40
2018-07-10T01:57:09.712Z,82.49
2018-07-10T01:59:38.676Z,82.76
2018-07-10T02:02:07.640Z,83.36
2018-07-10T02:04:37.761Z,83.24
2018-07-10T02:07:06.427Z,83.06
2018-07-10T02:09:35.679Z,83.42
2018-07-10T02:12:04.517Z,84.00
2018-07-10T02:14:33.483Z,84.13
2018-07-10T02:17:02.384Z,83.67
2018-07-10T02:19:31.406Z,84.93
2018-07-10T02:22:00.504Z,84.48
2018-07-10T02:24:29.484Z,84.41
2018-07-10T02:26:58.453Z,85.00
2018-07-10T02:29:27.759Z,84.69
2018-07-10T02:31:56.631Z,84.60
2018-07-10T02:34:25.567Z,84.66
2018-07-10T02:36:54.447Z,85.04
2018-07-10T02:39:23.455Z,85.22
2018-07-10T02:41:52.756Z,85.02
2018-07-10T02:44:21.774Z,85.29
2018-07-10T02:46:50.868Z,85.17
2018-07-10T02:49:21.216Z,85.39
2018-07-10T02:51:56.099Z,85.73
2018-07-10T02:54:27.524Z,85.83
2018-07-10T02:56:57.370Z,85.80
2018-07-10T02:59:34.328Z,86.76
2018-07-10T03:02:04.762Z,87.36
2018-07-10T03:04:35.664Z,87.35
2018-07-10T03:07:04.680Z,87.82
2018-07-10T03:09:34.099Z,88.12
2018-07-10T03:12:03.835Z,88.29
2018-07-10T03:14:32.768Z,88.33
2018-07-10T03:17:02.139Z,88.42
2018-07-10T03:19:31.932Z,88.61
2018-07-10T03:22:01.090Z,88.76
2018-07-10T03:24:30.094Z,88.76
2018-07-10T03:26:59.195Z,89.18
2018-07-10T03:29:28.143Z,88.91
2018-07-10T03:31:57.239Z,89.13
2018-07-10T03:34:25.838Z,88.95
2018-07-10T03:36:54.661Z,89.23
2018-07-10T03:39:23.591Z,88.97
2018-07-10T03:41:52.538Z,89.24
2018-07-10T03:44:21.334Z,88.87
2018-07-10T03:46:50.323Z,89.02
2018-07-10T03:49:19.285Z,89.12
2018-07-10T03:51:48.506Z,89.46
2018-07-10T03:54:17.487Z,89.25
2018-07-10T03:56:46.924Z,90.06
2018-07-10T03:59:15.903Z,89.93
2018-07-10T04:01:44.912Z,89.53
2018-07-10T04:04:14.618Z,89.62
2018-07-10T04:06:45.637Z,89.38
2018-07-10T04:09:14.652Z,89.54
2018-07-10T04:11:48.011Z,89.52
2018-07-10T04:14:21.838Z,89.84
2018-07-10T04:16:50.941Z,89.10
2018-07-10T04:19:19.980Z,89.18
2018-07-10T04:21:55.787Z,89.44
2018-07-10T04:24:25.059Z,89.18
2018-07-10T04:27:08.194Z,89.36
2018-07-10T04:30:17.156Z,89.36
2018-07-10T04:32:46.170Z,89.23
2018-07-10T04:35:18.738Z,88.88
2018-07-10T04:37:50.372Z,89.18
2018-07-10T04:40:20.257Z,89.45
2018-07-10T04:43:00.027Z,89.28
2018-07-10T04:45:41.155Z,88.91
2018-07-10T04:48:28.070Z,89.22
2018-07-10T04:51:37.136Z,89.35
2018-07-10T04:54:29.398Z,89.03
2018-07-10T04:57:07.415Z,89.37
2018-07-10T04:59:36.707Z,89.28
2018-07-10T05:02:06.593Z,89.14
2018-07-10T05:04:35.776Z,89.27
2018-07-10T05:07:09.403Z,89.03
2018-07-10T05:09:39.975Z,88.75
2018-07-10T05:12:09.177Z,88.63
2018-07-10T05:14:43.488Z,88.74
2018-07-10T05:17:14.563Z,89.29
2018-07-10T05:19:43.562Z,88.74
2018-07-10T05:22:12.651Z,88.88
2018-07-10T05:24:41.659Z,89.19
2018-07-10T05:27:11.136Z,89.17
2018-07-10T05:29:40.136Z,89.33
2018-07-10T05:32:10.544Z,89.53
2018-07-10T05:34:40.464Z,89.63
2018-07-10T05:37:12.447Z,90.07
2018-07-10T05:39:47.268Z,89.56
2018-07-10T05:42:16.227Z,89.92
2018-07-10T05:44:46.391Z,90.34
2018-07-10T05:47:15.478Z,90.22
2018-07-10T05:49:44.526Z,90.08
2018-07-10T05:52:13.260Z,89.97
2018-07-10T05:54:44.797Z,90.28
2018-07-10T05:57:13.708Z,90.06
2018-07-10T05:59:42.727Z,89.79
2018-07-10T06:02:11.759Z,89.60
2018-07-10T06:04:40.741Z,90.09
2018-07-10T06:07:09.682Z,89.80
2018-07-10T06:09:38.720Z,89.65
2018-07-10T06:12:07.731Z,90.65
2018-07-10T06:14:36.680Z,90.18
2018-07-10T06:17:06.193Z,89.65
2018-07-10T06:19:35.264Z,89.79
2018-07-10T06:22:04.343Z,90.18
2018-07-10T06:24:33.073Z,89.81
2018-07-10T06:27:06.496Z,89.92
2018-07-10T06:29:54.672Z,90.23
2018-07-10T06:32:23.919Z,90.64
2018-07-10T06:35:02.175Z,90.81
2018-07-10T06:37:32.440Z,90.12
2018-07-10T06:40:06.395Z,89.62
2018-07-10T06:42:52.291Z,89.86
2018-07-10T06:45:27.953Z,89.53
2018-07-10T06:47:56.970Z,89.19
2018-07-10T06:50:26.223Z,89.51
2018-07-10T06:52:55.799Z,89.15
2018-07-10T06:55:24.669Z,89.66
2018-07-10T06:57:57.350Z,89.64
2018-07-10T07:00:27.151Z,89.44
2018-07-10T07:02:56.227Z,88.94
2018-07-10T07:05:25.146Z,89.32
2018-07-10T07:07:54.181Z,89.26
2018-07-10T07:10:24.300Z,89.20
2018-07-10T07:12:53.239Z,89.29
2018-07-10T07:15:22.592Z,89.43
2018-07-10T07:17:52.744Z,89.29
2018-07-10T07:20:22.498Z,89.84
2018-07-10T07:22:51.754Z,89.34
2018-07-10T07:25:20.638Z,89.35
2018-07-10T07:27:49.591Z,90.31
2018-07-10T07:30:18.571Z,89.54
2018-07-10T07:32:48.226Z,89.18
2018-07-10T07:35:17.179Z,88.96
2018-07-10T07:37:46.564Z,88.42
2018-07-10T07:40:15.548Z,89.28
2018-07-10T07:42:44.455Z,89.16
2018-07-10T07:45:19.851Z,88.67
2018-07-10T07:47:49.438Z,87.95
2018-07-10T07:50:19.285Z,88.04
2018-07-10T07:52:48.244Z,88.09
2018-07-10T07:55:17.248Z,88.74
2018-07-10T07:57:46.117Z,88.04
2018-07-10T08:00:14.838Z,88.72
2018-07-10T08:02:43.750Z,88.85
2018-07-10T08:05:12.820Z,89.15
2018-07-10T08:07:41.735Z,89.76
2018-07-10T08:10:10.564Z,90.60
2018-07-10T08:12:39.575Z,90.03
2018-07-10T08:15:08.595Z,89.10
2018-07-10T08:17:37.564Z,89.23
2018-07-10T08:20:06.765Z,89.18
2018-07-10T08:22:35.851Z,89.22
2018-07-10T08:25:05.562Z,89.69
2018-07-10T08:27:36.891Z,89.89
2018-07-10T08:30:06.152Z,90.80
2018-07-10T08:32:37.092Z,90.28
2018-07-10T08:35:06.145Z,89.47
2018-07-10T08:37:35.222Z,89.00
2018-07-10T08:40:04.133Z,87.64
2018-07-10T08:42:32.924Z,87.56
2018-07-10T08:45:02.827Z,86.61
2018-07-10T08:47:31.895Z,85.14
2018-07-10T08:50:00.673Z,85.53
2018-07-10T08:52:29.656Z,85.59
2018-07-10T08:54:58.683Z,83.91
2018-07-10T08:57:27.920Z,81.22
2018-07-10T08:59:56.757Z,79.16
2018-07-10T09:02:25.688Z,78.53
2018-07-10T09:04:54.692Z,73.57
2018-07-10T09:07:23.688Z,70.39
2018-07-10T09:09:52.621Z,69.13
2018-07-10T09:12:21.512Z,72.12
2018-07-10T09:14:50.504Z,70.98
2018-07-10T09:17:20.457Z,72.67
2018-07-10T09:19:49.491Z,68.32
2018-07-10T09:22:18.239Z,68.45
2018-07-10T09:24:52.189Z,71.25
2018-07-10T09:27:22.484Z,70.75
2018-07-10T09:29:51.456Z,71.88
2018-07-10T09:32:27.191Z,71.88
2018-07-10T09:34:57.592Z,73.12
2018-07-10T09:37:34.789Z,73.75
2018-07-10T09:40:09.446Z,77.34
2018-07-10T09:42:44.748Z,75.51
2018-07-10T09:45:19.786Z,73.86
2018-07-10T09:47:48.806Z,73.86
2018-07-10T09:50:17.828Z,73.60
2018-07-10T09:52:46.768Z,73.72
2018-07-10T09:55:15.547Z,72.69
2018-07-10T09:57:44.515Z,73.35
2018-07-10T10:00:13.495Z,71.96
2018-07-10T10:02:42.476Z,72.29
2018-07-10T10:05:11.566Z,71.20
2018-07-10T10:07:40.489Z,71.02
2018-07-10T10:10:09.442Z,70.30
2018-07-10T10:12:38.434Z,66.96
2018-07-10T10:15:07.285Z,64.99
2018-07-10T10:17:36.306Z,66.21
2018-07-10T10:20:05.143Z,61.45
2018-07-10T10:22:35.653Z,62.37
2018-07-10T10:25:04.518Z,57.38
2018-07-10T10:27:33.302Z,64.12
2018-07-10T10:30:02.145Z,62.39
2018-07-10T10:32:31.414Z,63.66
2018-07-10T10:35:00.302Z,65.31
2018-07-10T10:37:29.276Z,65.24
2018-07-10T10:39:59.553Z,67.44
2018-07-10T10:42:28.877Z,66.18
2018-07-10T10:45:00.638Z,67.96
2018-07-10T10:47:31.211Z,65.51
2018-07-10T10:50:01.080Z,67.63
2018-07-10T10:52:30.113Z,65.71
2018-07-10T10:54:58.880Z,64.56
2018-07-10T10:57:35.694Z,63.93
2018-07-10T11:00:05.182Z,62.93
2018-07-10T11:02:34.181Z,63.60
2018-07-10T11:05:03.507Z,63.38
2018-07-10T11:07:34.115Z,64.77
2018-07-10T11:10:03.021Z,63.43
2018-07-10T11:12:32.817Z,63.99
2018-07-10T11:15:03.595Z,61.77
2018-07-10T11:17:44.637Z,60.62
2018-07-10T11:20:29.014Z,61.84
2018-07-10T11:23:06.304Z,59.82
2018-07-10T11:25:41.588Z,59.36
2018-07-10T11:28:13.216Z,58.43
2018-07-10T11:30:42.214Z,59.36
2018-07-10T11:33:11.589Z,57.38
2018-07-10T11:35:40.624Z,57.43
2018-07-10T11:38:13.745Z,56.36
2018-07-10T11:40:45.568Z,56.08
2018-07-10T11:43:14.587Z,56.27
2018-07-10T11:45:49.743Z,55.98
2018-07-10T11:48:18.583Z,55.71
2018-07-10T11:50:47.544Z,52.64
2018-07-10T11:53:16.868Z,52.74
2018-07-10T11:55:45.848Z,51.35
2018-07-10T11:58:14.832Z,51.81
2018-07-10T12:00:43.886Z,51.05
2018-07-10T12:03:12.808Z,49.70
2018-07-10T12:05:42.259Z,48.69
2018-07-10T12:08:11.187Z,49.40
2018-07-10T12:10:40.201Z,52.44
2018-07-10T12:13:09.130Z,54.87
2018-07-10T12:15:38.120Z,57.74
2018-07-10T12:18:07.099Z,57.17
2018-07-10T12:20:37.632Z,56.46
2018-07-10T12:23:08.656Z,54.71
2018-07-10T12:25:41.671Z,54.97
2018-07-10T12:28:11.848Z,53.75
2018-07-10T12:30:40.890Z,52.20
2018-07-10T12:33:10.041Z,51.94
2018-07-10T12:35:39.363Z,51.78
2018-07-10T12:38:08.211Z,50.96
2018-07-10T12:40:37.074Z,51.20
2018-07-10T12:43:05.999Z,49.19
2018-07-10T12:45:41.084Z,49.93
2018-07-10T12:48:09.803Z,50.14
2018-07-10T12:50:38.798Z,50.87
2018-07-10T12:53:07.724Z,50.55
2018-07-10T12:55:37.375Z,50.26
2018-07-10T12:58:06.552Z,48.45
2018-07-10T13:00:38.427Z,49.30
2018-07-10T13:03:09.912Z,47.39
2018-07-10T13:05:49.146Z,48.43
2018-07-10T13:08:18.443Z,46.71
2018-07-10T13:10:47.403Z,46.58
2018-07-10T13:13:16.539Z,48.85
2018-07-10T13:15:45.472Z,50.02
2018-07-10T13:18:15.799Z,51.00
2018-07-10T13:20:44.736Z,50.70
2018-07-10T13:23:13.461Z,50.19
2018-07-10T13:25:42.572Z,49.36
2018-07-10T13:28:11.598Z,48.34
2018-07-10T13:30:40.447Z,49.59
2018-07-10T13:33:09.548Z,50.16
2018-07-10T13:35:38.511Z,49.81
2018-07-10T13:38:07.695Z,50.77
2018-07-10T13:40:37.304Z,51.84
2018-07-10T13:43:06.106Z,51.44
2018-07-10T13:45:40.923Z,51.59
2018-07-10T13:48:10.043Z,52.09
2018-07-10T13:50:39.038Z,52.01
2018-07-10T13:53:08.080Z,52.39
2018-07-10T13:55:37.051Z,52.67
2018-07-10T13:58:11.109Z,52.35
2018-07-10T14:01:13.433Z,51.65
2018-07-10T14:03:42.457Z,49.65
2018-07-10T14:06:11.357Z,50.15
2018-07-10T14:08:40.379Z,49.71
2018-07-10T14:11:09.647Z,52.11
2018-07-10T14:13:38.632Z,53.59
2018-07-10T14:16:07.568Z,54.49
2018-07-10T14:18:36.344Z,58.06
2018-07-10T14:21:06.885Z,65.41
2018-07-10T14:23:36.443Z,70.63
2018-07-10T14:26:05.543Z,70.86
2018-07-10T14:28:34.780Z,70.98
2018-07-10T14:31:03.707Z,72.40
2018-07-10T14:33:32.716Z,72.21
2018-07-10T14:36:01.740Z,72.08
2018-07-10T14:38:31.029Z,71.15
2018-07-10T14:41:05.943Z,70.72
2018-07-10T14:43:37.962Z,71.09
2018-07-10T14:46:19.180Z,69.78
2018-07-10T14:48:54.367Z,71.08
2018-07-10T14:51:31.432Z,70.07
2018-07-10T14:54:00.375Z,67.64
2018-07-10T14:56:29.463Z,67.48
2018-07-10T14:58:58.281Z,65.66
2018-07-10T15:01:27.235Z,62.97
2018-07-10T15:03:56.372Z,55.01
2018-07-10T15:06:25.239Z,54.09
2018-07-10T15:08:54.243Z,54.97
2018-07-10T15:11:23.252Z,55.88
2018-07-10T15:14:01.239Z,54.08
2018-07-10T15:16:35.511Z,52.98
2018-07-10T15:19:04.803Z,52.07
2018-07-10T15:21:33.828Z,51.51
2018-07-10T15:24:04.057Z,51.66
2018-07-10T15:26:33.597Z,52.65
2018-07-10T15:29:02.641Z,53.92
2018-07-10T15:31:31.775Z,54.27
2018-07-10T15:34:00.943Z,53.78
2018-07-10T15:36:29.874Z,53.52
2018-07-10T15:38:58.652Z,53.37
2018-07-10T15:41:29.777Z,53.10
2018-07-10T15:43:58.690Z,50.43
2018-07-10T15:46:27.540Z,51.01
2018-07-10T15:48:56.741Z,51.64
2018-07-10T15:51:25.968Z,52.35
2018-07-10T15:53:54.907Z,51.96
2018-07-10T15:56:23.843Z,53.37
2018-07-10T15:58:52.920Z,53.06
2018-07-10T16:01:21.831Z,54.25
2018-07-10T16:03:50.947Z,54.04
2018-07-10T16:06:19.946Z,56.28
2018-07-10T16:08:49.313Z,56.53
2018-07-10T16:11:18.304Z,56.04
2018-07-10T16:13:47.780Z,56.23
2018-07-10T16:16:19.107Z,54.46
2018-07-10T16:18:55.862Z,55.52
2018-07-10T16:21:32.540Z,55.80
2018-07-10T16:24:03.304Z,55.05
2018-07-10T16:26:32.320Z,56.55
2018-07-10T16:29:06.893Z,56.64
2018-07-10T16:31:37.152Z,56.83
2018-07-10T16:34:06.221Z,55.41
2018-07-10T16:36:35.180Z,56.04
2018-07-10T16:39:04.256Z,57.10
2018-07-10T16:41:39.011Z,57.03
2018-07-10T16:44:08.013Z,56.51
2018-07-10T16:46:37.115Z,56.32
2018-07-10T16:49:15.983Z,55.99
2018-07-10T16:51:54.977Z,56.01
2018-07-10T16:54:24.251Z,56.19
2018-07-10T16:56:53.167Z,55.74
2018-07-10T16:59:22.210Z,56.83
2018-07-10T17:01:51.544Z,55.28
2018-07-10T17:04:20.517Z,55.28
2018-07-10T17:06:49.436Z,55.34
2018-07-10T17:09:18.546Z,55.98
2018-07-10T17:11:47.723Z,56.10
2018-07-10T17:14:16.564Z,55.43
2018-07-10T17:16:45.359Z,55.50
2018-07-10T17:19:14.081Z,55.62
2018-07-10T17:21:43.260Z,55.27
2018-07-10T17:24:12.904Z,56.23
2018-07-10T17:26:41.871Z,56.40
2018-07-10T17:29:12.076Z,56.88
2018-07-10T17:31:41.149Z,57.04
2018-07-10T17:34:10.376Z,57.05
2018-07-10T17:36:39.523Z,56.71
2018-07-10T17:39:08.490Z,57.21
2018-07-10T17:41:37.571Z,57.01
2018-07-10T17:44:10.652Z,56.65
2018-07-10T17:46:39.941Z,57.32
2018-07-10T17:49:08.661Z,58.07
2018-07-10T17:51:37.885Z,58.10
2018-07-10T17:54:06.855Z,58.83
2018-07-10T17:56:36.110Z,59.05
2018-07-10T17:59:07.130Z,59.54
2018-07-10T18:01:36.704Z,59.77
2018-07-10T18:04:06.075Z,59.77
2018-07-10T18:06:35.541Z,60.28
2018-07-10T18:09:05.267Z,60.33
2018-07-10T18:11:34.503Z,60.40
2018-07-10T18:14:03.506Z,61.26
2018-07-10T18:16:33.994Z,61.00
2018-07-10T18:19:04.923Z,61.32
2018-07-10T18:21:34.851Z,61.73
2018-07-10T18:24:04.088Z,61.88
2018-07-10T18:26:33.335Z,62.11
2018-07-10T18:29:02.300Z,62.12
2018-07-10T18:31:31.115Z,61.57
2018-07-10T18:34:00.149Z,62.37
2018-07-10T18:36:29.165Z,62.38
2018-07-10T18:38:58.385Z,61.72
2018-07-10T18:41:27.708Z,61.75
2018-07-10T18:43:56.614Z,62.17
2018-07-10T18:46:25.545Z,62.01
2018-07-10T18:48:54.909Z,62.54
2018-07-10T18:51:23.862Z,62.88
2018-07-10T18:53:52.809Z,62.97
2018-07-10T18:56:22.492Z,63.19
2018-07-10T18:59:03.752Z,63.15
2018-07-10T19:01:56.119Z,62.05
2018-07-10T19:04:54.919Z,61.84
2018-07-10T19:07:25.236Z,61.64
2018-07-10T19:09:54.256Z,60.91
2018-07-10T19:12:23.246Z,61.05
2018-07-10T19:14:52.427Z,61.32
2018-07-10T19:17:32.188Z,61.80
2018-07-10T19:20:07.387Z,61.63
2018-07-10T19:23:22.814Z,61.67
2018-07-10T19:25:52.103Z,61.64
2018-07-10T19:28:21.075Z,61.74
2018-07-10T19:31:04.953Z,61.95
2018-07-10T19:33:34.045Z,61.87
2018-07-10T19:36:03.021Z,62.56
2018-07-10T19:38:32.435Z,62.14
2018-07-10T19:41:01.427Z,62.75
2018-07-10T19:43:30.752Z,62.50
2018-07-10T19:46:00.053Z,62.32
2018-07-10T19:48:29.137Z,62.90
2018-07-10T19:50:58.107Z,63.58
2018-07-10T19:53:27.736Z,63.46
2018-07-10T19:55:56.696Z,62.77
2018-07-10T19:58:33.951Z,63.57
2018-07-10T20:01:28.099Z,63.45
2018-07-10T20:04:18.152Z,63.84
2018-07-10T20:07:53.131Z,64.31
2018-07-10T20:10:35.022Z,65.96
2018-07-10T20:13:47.134Z,65.58
2018-07-10T20:16:39.293Z,64.33
2018-07-10T20:19:47.508Z,65.44
2018-07-10T20:22:28.379Z,65.75
2018-07-10T20:25:10.801Z,65.88
2018-07-10T20:27:52.636Z,67.15
2018-07-10T20:31:37.461Z,65.95
2018-07-10T20:35:21.399Z,65.75
2018-07-10T20:37:50.801Z,66.28
2018-07-10T20:40:32.384Z,66.60
2018-07-10T20:43:21.055Z,67.07
2018-07-10T20:45:56.731Z,66.76
2018-07-10T20:48:59.894Z,66.59
2018-07-10T20:51:33.982Z,67.62
2018-07-10T20:55:08.455Z,67.35
2018-07-10T20:58:05.654Z,67.15
2018-07-10T21:00:42.022Z,68.03
2018-07-10T21:03:24.462Z,68.75
2018-07-10T21:05:55.231Z,68.41
2018-07-10T21:08:45.308Z,68.28
2018-07-10T21:11:20.309Z,68.73
2018-07-10T21:13:55.084Z,68.71
2018-07-10T21:16:31.240Z,68.67
2018-07-10T21:19:18.334Z,67.87
2018-07-10T21:23:10.843Z,68.27
2018-07-10T21:26:48.494Z,68.55
2018-07-10T21:30:32.317Z,68.53
2018-07-10T21:33:17.417Z,67.95
2018-07-10T21:35:51.188Z,69.36
2018-07-10T21:40:43.774Z,69.66
2018-07-10T21:43:17.367Z,69.17
2018-07-10T21:47:03.244Z,69.96
2018-07-10T21:49:50.330Z,70.23
2018-07-10T21:52:19.702Z,70.05
2018-07-10T21:54:48.487Z,70.02
2018-07-10T21:57:18.687Z,69.98
2018-07-10T21:59:56.662Z,69.99
2018-07-10T22:02:25.399Z,69.79
2018-07-10T22:04:56.944Z,69.90
2018-07-10T22:07:29.212Z,70.07
2018-07-10T22:10:08.021Z,69.40
2018-07-10T22:12:46.141Z,70.10
2018-07-10T22:15:15.320Z,69.89
2018-07-10T22:17:44.065Z,69.70
2018-07-10T22:20:12.992Z,69.38
2018-07-10T22:22:42.051Z,69.95
2018-07-10T22:25:10.973Z,70.51
2018-07-10T22:27:42.061Z,69.30
2018-07-10T22:30:21.152Z,69.30
2018-07-10T22:33:01.710Z,70.05
2018-07-10T22:35:30.753Z,70.25
2018-07-10T22:38:00.119Z,70.40
2018-07-10T22:40:28.859Z,70.68
2018-07-10T22:42:58.166Z,70.16
2018-07-10T22:45:33.206Z,69.93
2018-07-10T22:48:02.715Z,69.66
2018-07-10T22:50:31.679Z,69.77
2018-07-10T22:53:01.686Z,69.73
2018-07-10T22:55:32.513Z,69.64
2018-07-10T22:58:06.511Z,70.64
2018-07-10T23:00:37.208Z,70.88
2018-07-10T23:03:22.094Z,70.78
2018-07-10T23:05:51.954Z,71.05
2018-07-10T23:08:33.293Z,70.98
2018-07-10T23:11:04.405Z,70.86
2018-07-10T23:13:36.961Z,70.70
2018-07-10T23:16:06.404Z,70.36
2018-07-10T23:18:35.395Z,70.49
2018-07-10T23:21:05.222Z,70.94
2018-07-10T23:23:34.485Z,70.96
2018-07-10T23:26:03.471Z,72.09
2018-07-10T23:28:32.975Z,71.46
2018-07-10T23:31:03.796Z,72.31
2018-07-10T23:33:33.130Z,71.38
2018-07-10T23:36:02.255Z,71.51
2018-07-10T23:38:39.109Z,72.08
2018-07-10T23:41:21.597Z,72.21
2018-07-10T23:43:50.985Z,72.91
2018-07-10T23:46:30.507Z,72.62
2018-07-10T23:49:12.439Z,72.40
2018-07-10T23:51:57.988Z,73.00
2018-07-10T23:54:27.326Z,74.58
2018-07-10T23:56:56.250Z,74.77
2018-07-10T23:59:25.217Z,74.76
